createdAt,value
2018-12-18T00:00:46.527Z,21.60
2018-12-18T00:01:46.495Z,20.70
2018-12-18T00:02:46.491Z,16.70
2018-12-18T00:03:46.454Z,20.70
2018-12-18T00:04:46.424Z,17.40
2018-12-18T00:05:46.428Z,19.20
2018-12-18T00:06:46.390Z,13.80
2018-12-18T00:07:46.382Z,19.90
2018-12-18T00:08:46.345Z,20.30
2018-12-18T00:09:46.326Z,18.60
2018-12-18T00:10:46.305Z,18.40
2018-12-18T00:11:46.300Z,18.90
2018-12-18T00:12:46.345Z,18.20
2018-12-18T00:13:46.237Z,19.90
2018-12-18T00:14:46.217Z,16.40
2018-12-18T00:15:46.202Z,17.50
2018-12-18T00:16:46.205Z,18.50
2018-12-18T00:17:46.161Z,18.80
2018-12-18T00:18:46.137Z,19.80
2018-12-18T00:19:46.112Z,20.30
2018-12-18T00:20:46.094Z,19.80
2018-12-18T00:21:46.071Z,16.50
2018-12-18T00:22:46.071Z,19.10
2018-12-18T00:23:46.035Z,18.60
2018-12-18T00:24:46.017Z,19.80
2018-12-18T00:25:46.013Z,20.50
2018-12-18T00:26:45.969Z,19.70
2018-12-18T00:27:45.974Z,18.20
2018-12-18T00:28:45.950Z,18.90
2018-12-18T00:29:45.907Z,18.80
2018-12-18T00:30:45.892Z,20.60
2018-12-18T00:31:45.869Z,19.10
2018-12-18T00:32:45.849Z,19.70
2018-12-18T00:33:46.185Z,19.10
2018-12-18T00:34:45.811Z,21.80
2018-12-18T00:35:45.786Z,21.30
2018-12-18T00:36:45.787Z,22.30
2018-12-18T00:37:45.762Z,21.70
2018-12-18T00:38:45.751Z,20.90
2018-12-18T00:39:45.701Z,17.10
2018-12-18T00:40:45.683Z,19.10
2018-12-18T00:41:45.664Z,18.50
2018-12-18T00:42:45.639Z,18.80
2018-12-18T00:43:45.630Z,20.40
2018-12-18T00:44:45.620Z,18.00
2018-12-18T00:45:45.580Z,17.00
2018-12-18T00:46:45.561Z,18.90
2018-12-18T00:47:45.553Z,18.90
2018-12-18T00:48:45.534Z,20.70
2018-12-18T00:49:45.498Z,23.50
2018-12-18T00:50:45.506Z,19.30
2018-12-18T00:51:45.458Z,19.20
2018-12-18T00:52:45.433Z,17.70
2018-12-18T00:53:45.418Z,21.70
2018-12-18T00:54:45.395Z,20.00
2018-12-18T00:55:45.390Z,21.30
2018-12-18T00:56:45.374Z,23.50
2018-12-18T00:57:45.337Z,20.00
2018-12-18T00:58:45.319Z,20.60
2018-12-18T00:59:45.300Z,18.80
2018-12-18T01:00:45.282Z,22.30
2018-12-18T01:01:45.268Z,21.50
2018-12-18T01:02:45.247Z,19.50
2018-12-18T01:03:45.211Z,21.90
2018-12-18T01:04:45.195Z,20.60
2018-12-18T01:05:45.175Z,22.90
2018-12-18T01:06:45.168Z,19.70
2018-12-18T01:07:45.142Z,20.50
2018-12-18T01:08:45.115Z,18.70
2018-12-18T01:09:45.091Z,19.90
2018-12-18T01:10:45.093Z,22.00
2018-12-18T01:11:45.048Z,20.70
2018-12-18T01:12:45.039Z,21.90
2018-12-18T01:13:45.032Z,20.80
2018-12-18T01:14:44.999Z,20.00
2018-12-18T01:15:44.968Z,25.10
2018-12-18T01:16:44.969Z,17.90
2018-12-18T01:17:44.965Z,16.90
2018-12-18T01:18:44.934Z,20.80
2018-12-18T01:19:44.919Z,18.20
2018-12-18T01:20:44.867Z,21.00
2018-12-18T01:21:44.846Z,18.60
2018-12-18T01:22:44.825Z,20.30
2018-12-18T01:23:44.812Z,21.70
2018-12-18T01:24:44.802Z,25.10
2018-12-18T01:25:44.766Z,21.80
2018-12-18T01:26:44.747Z,19.70
2018-12-18T01:27:44.802Z,20.50
2018-12-18T01:28:44.726Z,21.60
2018-12-18T01:29:44.698Z,21.10
2018-12-18T01:30:44.662Z,20.10
2018-12-18T01:31:44.646Z,17.80
2018-12-18T01:32:44.626Z,20.20
2018-12-18T01:33:44.614Z,20.30
2018-12-18T01:34:44.597Z,20.30
2018-12-18T01:35:44.558Z,20.80
2018-12-18T01:36:44.542Z,25.30
2018-12-18T01:37:44.532Z,21.70
2018-12-18T01:38:44.499Z,20.30
2018-12-18T01:39:44.490Z,17.90
2018-12-18T01:40:44.471Z,20.20
2018-12-18T01:41:44.446Z,19.60
2018-12-18T01:42:44.421Z,19.10
2018-12-18T01:43:44.392Z,18.30
2018-12-18T01:44:44.390Z,17.70
2018-12-18T01:45:44.354Z,20.00
2018-12-18T01:46:44.337Z,18.00
2018-12-18T01:47:44.315Z,20.30
2018-12-18T01:48:44.290Z,18.60
2018-12-18T01:49:44.283Z,18.00
2018-12-18T01:50:44.269Z,17.70
2018-12-18T01:51:44.230Z,19.60
2018-12-18T01:52:44.205Z,18.70
2018-12-18T01:53:44.181Z,19.30
2018-12-18T01:54:44.160Z,18.60
2018-12-18T01:55:44.176Z,19.10
2018-12-18T01:56:44.122Z,18.00
2018-12-18T01:57:44.099Z,19.80
2018-12-18T01:58:44.077Z,19.50
2018-12-18T01:59:44.182Z,19.30
2018-12-18T02:00:44.047Z,19.30
2018-12-18T02:01:44.038Z,17.60
2018-12-18T02:02:43.992Z,17.30
2018-12-18T02:03:43.983Z,18.80
2018-12-18T02:04:43.954Z,17.50
2018-12-18T02:05:43.930Z,21.20
2018-12-18T02:06:43.922Z,20.50
2018-12-18T02:07:44.014Z,20.20
2018-12-18T02:08:43.887Z,17.00
2018-12-18T02:09:43.842Z,19.50
2018-12-18T02:10:43.825Z,17.10
2018-12-18T02:11:43.805Z,18.00
2018-12-18T02:12:44.278Z,17.70
2018-12-18T02:13:43.758Z,18.60
2018-12-18T02:14:43.740Z,17.60
2018-12-18T02:15:43.725Z,17.20
2018-12-18T02:16:43.699Z,20.70
2018-12-18T02:17:43.677Z,21.00
2018-12-18T02:18:43.681Z,17.20
2018-12-18T02:19:43.635Z,16.00
2018-12-18T02:20:43.615Z,18.10
2018-12-18T02:21:43.594Z,20.10
2018-12-18T02:22:43.574Z,19.70
2018-12-18T02:23:43.556Z,16.80
2018-12-18T02:24:43.548Z,19.20
2018-12-18T02:25:43.664Z,18.90
2018-12-18T02:26:43.485Z,17.80
2018-12-18T02:27:43.518Z,18.30
2018-12-18T02:28:43.444Z,17.10
2018-12-18T02:29:43.425Z,17.90
2018-12-18T02:30:43.420Z,18.90
2018-12-18T02:31:43.389Z,17.10
2018-12-18T02:32:43.358Z,17.10
2018-12-18T02:33:43.339Z,19.00
2018-12-18T02:34:43.317Z,17.00
2018-12-18T02:35:43.316Z,18.90
2018-12-18T02:36:43.275Z,16.00
2018-12-18T02:37:43.250Z,16.50
2018-12-18T02:38:43.233Z,19.90
2018-12-18T02:39:43.212Z,18.10
2018-12-18T02:40:43.206Z,20.00
2018-12-18T02:41:43.167Z,17.90
2018-12-18T02:42:43.148Z,16.80
2018-12-18T02:43:43.122Z,20.30
2018-12-18T02:44:43.105Z,19.00
2018-12-18T02:45:43.116Z,18.80
2018-12-18T02:46:43.065Z,16.90
2018-12-18T02:47:43.040Z,18.30
2018-12-18T02:48:43.019Z,20.60
2018-12-18T02:49:42.996Z,18.90
2018-12-18T02:50:42.976Z,19.20
2018-12-18T02:51:42.970Z,18.10
2018-12-18T02:52:42.934Z,22.00
2018-12-18T02:53:42.910Z,18.30
2018-12-18T02:54:42.902Z,19.20
2018-12-18T02:55:42.864Z,18.70
2018-12-18T02:56:42.863Z,20.00
2018-12-18T02:57:42.823Z,19.00
2018-12-18T02:58:42.803Z,19.00
2018-12-18T02:59:42.782Z,20.00
2018-12-18T03:00:42.759Z,20.00
2018-12-18T03:01:42.755Z,19.30
2018-12-18T03:02:42.713Z,21.50
2018-12-18T03:03:42.693Z,19.80
2018-12-18T03:04:42.675Z,16.30
2018-12-18T03:05:42.673Z,20.90
2018-12-18T03:06:42.635Z,17.20
2018-12-18T03:07:42.607Z,17.70
2018-12-18T03:08:42.589Z,20.20
2018-12-18T03:09:42.572Z,17.30
2018-12-18T03:10:42.548Z,20.80
2018-12-18T03:11:42.553Z,17.90
2018-12-18T03:12:42.502Z,18.50
2018-12-18T03:13:42.475Z,19.10
2018-12-18T03:14:42.459Z,18.50
2018-12-18T03:15:42.435Z,19.20
2018-12-18T03:16:42.416Z,18.30
2018-12-18T03:17:42.420Z,15.50
2018-12-18T03:18:42.374Z,18.30
2018-12-18T03:19:42.352Z,17.80
2018-12-18T03:20:42.330Z,18.10
2018-12-18T03:21:42.315Z,17.60
2018-12-18T03:22:42.285Z,18.70
2018-12-18T03:23:42.278Z,20.40
2018-12-18T03:24:42.245Z,17.10
2018-12-18T03:25:42.218Z,18.10
2018-12-18T03:26:42.196Z,19.40
2018-12-18T03:27:42.194Z,16.40
2018-12-18T03:28:42.156Z,18.00
2018-12-18T03:29:42.155Z,19.10
2018-12-18T03:30:42.114Z,18.10
2018-12-18T03:31:42.085Z,16.90
2018-12-18T03:32:42.081Z,19.10
2018-12-18T03:33:42.058Z,16.60
2018-12-18T03:34:42.023Z,16.40
2018-12-18T03:35:42.003Z,18.40
2018-12-18T03:36:42.002Z,16.40
2018-12-18T03:37:41.964Z,18.00
2018-12-18T03:38:41.935Z,17.60
2018-12-18T03:39:41.940Z,16.60
2018-12-18T03:40:41.896Z,21.50
2018-12-18T03:41:41.873Z,17.10
2018-12-18T03:42:41.851Z,18.70
2018-12-18T03:43:41.826Z,19.40
2018-12-18T03:44:41.822Z,21.00
2018-12-18T03:45:41.799Z,18.10
2018-12-18T03:46:41.778Z,20.00
2018-12-18T03:47:41.745Z,17.30
2018-12-18T03:48:41.731Z,17.50
2018-12-18T03:49:41.714Z,17.40
2018-12-18T03:50:41.677Z,16.10
2018-12-18T03:51:41.675Z,16.50
2018-12-18T03:52:41.639Z,17.50
2018-12-18T03:53:41.616Z,16.70
2018-12-18T03:54:41.591Z,17.80
2018-12-18T03:55:41.571Z,18.80
2018-12-18T03:56:41.551Z,18.00
2018-12-18T03:57:41.546Z,17.30
2018-12-18T03:58:41.506Z,16.80
2018-12-18T03:59:41.483Z,18.50
2018-12-18T04:00:41.462Z,17.60
2018-12-18T04:01:41.439Z,18.90
2018-12-18T04:02:41.433Z,22.00
2018-12-18T04:03:41.398Z,19.90
2018-12-18T04:04:41.376Z,17.10
2018-12-18T04:05:41.355Z,16.20
2018-12-18T04:06:41.333Z,17.70
2018-12-18T04:07:41.388Z,16.20
2018-12-18T04:08:41.304Z,16.80
2018-12-18T04:09:41.264Z,15.60
2018-12-18T04:10:41.245Z,14.60
2018-12-18T04:11:41.222Z,15.70
2018-12-18T04:12:41.198Z,14.90
2018-12-18T04:13:41.188Z,14.40
2018-12-18T04:14:41.182Z,16.00
2018-12-18T04:15:41.227Z,14.60
2018-12-18T04:16:41.116Z,16.30
2018-12-18T04:17:41.095Z,13.50
2018-12-18T04:18:41.089Z,14.60
2018-12-18T04:19:41.052Z,16.50
2018-12-18T04:20:41.038Z,14.50
2018-12-18T04:21:41.022Z,15.70
2018-12-18T04:22:40.988Z,14.40
2018-12-18T04:23:40.978Z,14.60
2018-12-18T04:24:40.943Z,14.40
2018-12-18T04:25:40.920Z,15.60
2018-12-18T04:26:40.915Z,14.10
2018-12-18T04:27:40.883Z,13.30
2018-12-18T04:28:40.873Z,14.00
2018-12-18T04:29:40.835Z,14.10
2018-12-18T04:30:40.809Z,15.10
2018-12-18T04:31:40.790Z,15.00
2018-12-18T04:32:40.769Z,15.90
2018-12-18T04:33:40.806Z,14.10
2018-12-18T04:34:43.195Z,12.60
2018-12-18T04:35:40.746Z,13.30
2018-12-18T04:36:40.684Z,12.30
2018-12-18T04:37:40.676Z,12.90
2018-12-18T04:38:40.658Z,11.50
2018-12-18T04:39:40.633Z,16.00
2018-12-18T04:40:40.598Z,14.00
2018-12-18T04:41:40.571Z,12.90
2018-12-18T04:42:40.549Z,17.90
2018-12-18T04:43:40.547Z,13.60
2018-12-18T04:44:40.510Z,13.70
2018-12-18T04:45:40.619Z,13.00
2018-12-18T04:46:40.462Z,13.50
2018-12-18T04:47:40.439Z,14.30
2018-12-18T04:48:40.421Z,14.50
2018-12-18T04:49:40.432Z,16.70
2018-12-18T04:50:40.378Z,13.10
2018-12-18T04:51:40.354Z,15.00
2018-12-18T04:52:40.333Z,14.60
2018-12-18T04:53:40.310Z,15.00
2018-12-18T04:54:40.290Z,15.10
2018-12-18T04:55:40.279Z,15.10
2018-12-18T04:56:40.246Z,13.70
2018-12-18T04:57:40.255Z,16.60
2018-12-18T04:58:40.220Z,14.90
2018-12-18T04:59:40.181Z,17.80
2018-12-18T05:00:40.158Z,14.50
2018-12-18T05:01:40.134Z,15.20
2018-12-18T05:02:40.121Z,15.50
2018-12-18T05:03:40.095Z,15.00
2018-12-18T05:04:40.090Z,16.80
2018-12-18T05:05:40.050Z,16.30
2018-12-18T05:06:40.024Z,15.30
2018-12-18T05:07:40.008Z,14.30
2018-12-18T05:08:39.989Z,15.80
2018-12-18T05:09:39.962Z,17.00
2018-12-18T05:10:39.955Z,17.90
2018-12-18T05:11:39.917Z,15.30
2018-12-18T05:12:39.919Z,16.30
2018-12-18T05:13:39.874Z,14.50
2018-12-18T05:14:39.856Z,15.90
2018-12-18T05:15:39.835Z,16.10
2018-12-18T05:16:39.824Z,14.00
2018-12-18T05:17:39.795Z,15.00
2018-12-18T05:18:39.765Z,16.70
2018-12-18T05:19:39.743Z,15.80
2018-12-18T05:20:39.721Z,16.20
2018-12-18T05:21:39.712Z,15.30
2018-12-18T05:22:39.684Z,16.40
2018-12-18T05:23:39.653Z,13.90
2018-12-18T05:24:39.648Z,15.20
2018-12-18T05:25:39.611Z,15.20
2018-12-18T05:26:39.586Z,14.30
2018-12-18T05:27:39.568Z,15.50
2018-12-18T05:28:39.547Z,15.80
2018-12-18T05:29:39.524Z,16.10
2018-12-18T05:30:39.521Z,15.00
2018-12-18T05:31:39.480Z,15.40
2018-12-18T05:32:39.458Z,15.30
2018-12-18T05:33:39.445Z,15.20
2018-12-18T05:34:39.419Z,15.00
2018-12-18T05:35:39.411Z,16.50
2018-12-18T05:36:39.394Z,16.80
2018-12-18T05:37:39.348Z,15.60
2018-12-18T05:38:39.328Z,17.20
2018-12-18T05:39:39.305Z,17.50
2018-12-18T05:40:39.305Z,18.10
2018-12-18T05:41:39.271Z,17.20
2018-12-18T05:42:39.239Z,14.30
2018-12-18T05:43:39.215Z,16.70
2018-12-18T05:44:39.194Z,15.10
2018-12-18T05:45:39.188Z,15.90
2018-12-18T05:46:39.245Z,16.40
2018-12-18T05:47:39.149Z,15.90
2018-12-18T05:48:39.106Z,14.80
2018-12-18T05:49:39.096Z,15.90
2018-12-18T05:50:39.061Z,15.30
2018-12-18T05:51:39.043Z,13.50
2018-12-18T05:52:39.035Z,13.70
2018-12-18T05:53:38.994Z,14.20
2018-12-18T05:54:38.975Z,17.70
2018-12-18T05:55:38.989Z,14.90
2018-12-18T05:56:38.933Z,14.30
2018-12-18T05:57:38.914Z,12.20
2018-12-18T05:58:38.903Z,13.70
2018-12-18T05:59:38.866Z,14.40
2018-12-18T06:00:39.046Z,12.80
2018-12-18T06:01:38.823Z,13.50
2018-12-18T06:02:38.801Z,15.60
2018-12-18T06:03:38.785Z,12.90
2018-12-18T06:04:38.761Z,12.80
2018-12-18T06:05:38.753Z,13.70
2018-12-18T06:06:38.712Z,14.20
2018-12-18T06:07:38.690Z,14.00
2018-12-18T06:08:38.677Z,13.50
2018-12-18T06:09:38.662Z,12.40
2018-12-18T06:10:38.624Z,11.90
2018-12-18T06:11:38.629Z,12.80
2018-12-18T06:12:38.585Z,12.20
2018-12-18T06:13:38.557Z,11.30
2018-12-18T06:14:38.535Z,10.70
2018-12-18T06:15:38.517Z,10.70
2018-12-18T06:16:38.508Z,13.60
2018-12-18T06:17:38.469Z,13.00
2018-12-18T06:18:38.449Z,11.00
2018-12-18T06:19:38.428Z,12.20
2018-12-18T06:20:38.420Z,11.90
2018-12-18T06:21:38.383Z,12.50
2018-12-18T06:22:38.380Z,11.80
2018-12-18T06:23:38.338Z,12.30
2018-12-18T06:24:38.317Z,10.80
2018-12-18T06:25:38.295Z,11.60
2018-12-18T06:26:38.276Z,10.00
2018-12-18T06:27:38.267Z,11.30
2018-12-18T06:28:38.249Z,10.10
2018-12-18T06:29:38.207Z,13.10
2018-12-18T06:30:38.200Z,13.50
2018-12-18T06:31:38.160Z,10.40
2018-12-18T06:32:38.145Z,12.60
2018-12-18T06:33:38.122Z,11.20
2018-12-18T06:34:38.124Z,11.20
2018-12-18T06:35:38.077Z,14.00
2018-12-18T06:36:38.078Z,10.90
2018-12-18T06:37:38.030Z,11.00
2018-12-18T06:38:38.011Z,11.40
2018-12-18T06:39:37.983Z,12.00
2018-12-18T06:40:37.970Z,13.20
2018-12-18T06:41:37.945Z,10.10
2018-12-18T06:42:38.882Z,10.80
2018-12-18T06:43:37.900Z,12.10
2018-12-18T06:44:37.877Z,9.90
2018-12-18T06:45:37.852Z,12.70
2018-12-18T06:46:37.834Z,13.10
2018-12-18T06:47:37.840Z,11.00
2018-12-18T06:48:37.786Z,13.00
2018-12-18T06:49:37.762Z,11.70
2018-12-18T06:50:37.744Z,9.90
2018-12-18T06:51:37.723Z,12.30
2018-12-18T06:52:37.714Z,9.70
2018-12-18T06:53:37.689Z,12.00
2018-12-18T06:54:37.655Z,11.00
2018-12-18T06:55:37.633Z,12.80
2018-12-18T06:56:37.612Z,12.60
2018-12-18T06:57:37.591Z,11.20
2018-12-18T06:58:37.584Z,11.80
2018-12-18T06:59:37.548Z,12.50
2018-12-18T07:00:37.543Z,10.50
2018-12-18T07:01:37.510Z,12.60
2018-12-18T07:02:37.478Z,13.70
2018-12-18T07:03:37.457Z,15.80
2018-12-18T07:04:37.440Z,16.00
2018-12-18T07:05:37.416Z,14.40
2018-12-18T07:06:37.411Z,12.30
2018-12-18T07:07:37.374Z,12.40
2018-12-18T07:08:37.350Z,11.20
2018-12-18T07:09:37.331Z,9.90
2018-12-18T07:10:37.309Z,10.60
2018-12-18T07:11:37.301Z,12.30
2018-12-18T07:12:37.261Z,10.80
2018-12-18T07:13:37.248Z,11.90
2018-12-18T07:14:37.216Z,12.60
2018-12-18T07:15:37.202Z,11.60
2018-12-18T07:16:37.193Z,13.30
2018-12-18T07:17:37.150Z,10.40
2018-12-18T07:18:37.132Z,11.80
2018-12-18T07:19:37.113Z,12.80
2018-12-18T07:22:19.301Z,10.20
2018-12-18T07:23:19.274Z,11.70
2018-12-18T07:24:19.241Z,10.70
2018-12-18T07:25:19.214Z,10.60
2018-12-18T07:26:19.195Z,10.00
2018-12-18T07:27:19.177Z,10.50
2018-12-18T07:28:19.170Z,10.20
2018-12-18T07:29:19.135Z,10.10
2018-12-18T07:30:19.108Z,9.50
2018-12-18T07:31:19.088Z,9.00
2018-12-18T07:32:19.093Z,10.80
2018-12-18T07:33:19.042Z,9.80
2018-12-18T07:34:19.037Z,11.50
2018-12-18T07:35:23.178Z,8.60
2018-12-18T07:36:18.995Z,11.40
2018-12-18T07:37:18.952Z,11.00
2018-12-18T07:38:18.933Z,12.30
2018-12-18T07:39:18.924Z,11.40
2018-12-18T07:40:18.884Z,13.00
2018-12-18T07:41:18.861Z,11.20
2018-12-18T07:42:18.839Z,10.90
2018-12-18T07:43:18.820Z,9.70
2018-12-18T07:44:18.812Z,14.00
2018-12-18T07:45:18.790Z,12.10
2018-12-18T07:46:18.777Z,12.40
2018-12-18T07:47:18.732Z,12.90
2018-12-18T07:48:18.708Z,12.40
2018-12-18T07:49:18.686Z,11.90
2018-12-18T07:50:18.664Z,11.70
2018-12-18T07:51:18.667Z,11.30
2018-12-18T07:52:18.621Z,10.90
2018-12-18T07:53:18.596Z,11.20
2018-12-18T07:54:18.600Z,12.10
2018-12-18T07:55:18.556Z,11.40
2018-12-18T07:56:18.610Z,11.10
2018-12-18T07:57:18.512Z,11.20
2018-12-18T07:58:18.522Z,10.70
2018-12-18T07:59:18.474Z,12.00
2018-12-18T08:00:18.445Z,11.30
2018-12-18T08:01:18.456Z,11.50
2018-12-18T08:02:18.413Z,10.70
2018-12-18T08:03:18.409Z,12.00
2018-12-18T08:04:18.366Z,12.80
2018-12-18T08:05:18.349Z,11.60
2018-12-18T08:06:18.345Z,11.10
2018-12-18T08:07:18.299Z,12.20
2018-12-18T08:08:18.273Z,13.50
2018-12-18T08:09:18.278Z,10.30
2018-12-18T08:10:18.231Z,11.40
2018-12-18T08:11:18.206Z,12.20
2018-12-18T08:12:18.184Z,12.90
2018-12-18T08:13:18.162Z,13.20
2018-12-18T08:14:18.179Z,10.30
2018-12-18T08:15:18.128Z,13.80
2018-12-18T08:16:18.102Z,11.60
2018-12-18T08:17:18.080Z,12.50
2018-12-18T08:18:18.055Z,10.50
2018-12-18T08:19:18.034Z,13.60
2018-12-18T08:20:18.025Z,11.70
2018-12-18T08:21:17.987Z,12.10
2018-12-18T08:22:17.974Z,11.00
2018-12-18T08:23:17.948Z,11.80
2018-12-18T08:24:17.928Z,11.40
2018-12-18T08:25:17.920Z,12.50
2018-12-18T08:26:18.821Z,10.00
2018-12-18T08:27:17.868Z,13.60
2018-12-18T08:28:17.840Z,13.50
2018-12-18T08:29:17.822Z,12.30
2018-12-18T08:30:17.816Z,11.10
2018-12-18T08:31:17.768Z,11.70
2018-12-18T08:32:17.757Z,11.90
2018-12-18T08:33:17.728Z,11.80
2018-12-18T08:34:17.703Z,11.40
2018-12-18T08:35:17.716Z,11.40
2018-12-18T08:36:17.675Z,11.60
2018-12-18T08:37:17.637Z,9.30
2018-12-18T08:38:17.633Z,10.80
2018-12-18T08:39:17.609Z,10.40
2018-12-18T08:40:17.579Z,10.70
2018-12-18T08:41:17.558Z,9.70
2018-12-18T08:42:17.529Z,11.50
2018-12-18T08:43:17.511Z,11.70
2018-12-18T08:44:17.510Z,12.00
2018-12-18T08:45:17.464Z,9.80
2018-12-18T08:46:17.444Z,10.90
2018-12-18T08:47:17.423Z,11.30
2018-12-18T08:48:17.404Z,11.10
2018-12-18T08:49:17.381Z,11.00
2018-12-18T08:50:17.373Z,10.50
2018-12-18T08:51:17.337Z,10.80
2018-12-18T08:52:17.317Z,13.40
2018-12-18T08:53:17.290Z,10.10
2018-12-18T08:54:17.271Z,10.40
2018-12-18T08:55:17.270Z,10.80
2018-12-18T08:56:17.228Z,9.10
2018-12-18T08:57:17.207Z,10.80
2018-12-18T08:58:17.189Z,10.90
2018-12-18T08:59:17.481Z,9.40
2018-12-18T09:00:17.160Z,13.60
2018-12-18T09:01:17.123Z,9.20
2018-12-18T09:02:17.100Z,10.60
2018-12-18T09:03:17.098Z,11.20
2018-12-18T09:04:17.056Z,11.40
2018-12-18T09:05:17.033Z,10.90
2018-12-18T09:06:17.016Z,10.50
2018-12-18T09:07:16.992Z,10.80
2018-12-18T09:08:16.985Z,10.30
2018-12-18T09:09:16.955Z,10.20
2018-12-18T09:10:16.930Z,10.70
2018-12-18T09:11:16.929Z,10.90
2018-12-18T09:12:16.892Z,10.00
2018-12-18T09:13:16.863Z,10.40
2018-12-18T09:14:16.872Z,10.30
2018-12-18T09:15:16.825Z,11.50
2018-12-18T09:16:16.905Z,9.20
2018-12-18T09:17:16.779Z,8.40
2018-12-18T09:18:16.758Z,12.90
2018-12-18T09:19:16.735Z,11.80
2018-12-18T09:20:16.715Z,11.80
2018-12-18T09:21:16.701Z,10.60
2018-12-18T09:22:16.689Z,13.30
2018-12-18T09:23:16.833Z,11.20
2018-12-18T09:24:16.626Z,11.10
2018-12-18T09:25:16.611Z,11.90
2018-12-18T09:26:16.611Z,12.90
2018-12-18T09:27:16.581Z,11.90
2018-12-18T09:28:16.555Z,11.60
2018-12-18T09:29:16.521Z,9.20
2018-12-18T09:30:16.498Z,11.10
2018-12-18T09:31:16.479Z,12.50
2018-12-18T09:32:16.458Z,11.00
2018-12-18T09:33:16.455Z,8.90
2018-12-18T09:34:16.416Z,10.60
2018-12-18T09:35:16.396Z,10.60
2018-12-18T09:36:16.380Z,11.30
2018-12-18T09:37:16.362Z,10.50
2018-12-18T09:38:16.349Z,10.60
2018-12-18T09:39:16.310Z,13.00
2018-12-18T09:40:16.289Z,9.30
2018-12-18T09:41:16.265Z,11.00
2018-12-18T09:42:16.254Z,13.20
2018-12-18T09:43:16.227Z,11.50
2018-12-18T09:44:16.222Z,10.90
2018-12-18T09:45:16.184Z,9.40
2018-12-18T09:46:16.159Z,11.00
2018-12-18T09:47:16.144Z,10.50
2018-12-18T09:48:16.131Z,10.60
2018-12-18T09:49:16.112Z,10.80
2018-12-18T09:50:16.098Z,11.10
2018-12-18T09:51:16.061Z,10.50
2018-12-18T09:52:16.036Z,11.90
2018-12-18T09:53:16.015Z,11.10
2018-12-18T09:54:15.993Z,11.00
2018-12-18T09:55:15.992Z,12.40
2018-12-18T09:56:15.967Z,11.30
2018-12-18T09:57:15.937Z,13.60
2018-12-18T09:58:15.912Z,10.80
2018-12-18T09:59:15.884Z,12.40
2018-12-18T10:00:15.894Z,11.00
2018-12-18T10:01:15.860Z,10.40
2018-12-18T10:02:15.836Z,8.40
2018-12-18T10:03:15.813Z,11.30
2018-12-18T10:04:15.788Z,11.70
2018-12-18T10:05:15.788Z,11.80
2018-12-18T10:06:15.746Z,12.50
2018-12-18T10:07:15.747Z,9.30
2018-12-18T10:08:15.721Z,14.10
2018-12-18T10:09:15.684Z,10.80
2018-12-18T10:10:15.660Z,10.30
2018-12-18T10:11:15.667Z,11.00
2018-12-18T10:12:15.619Z,12.10
2018-12-18T10:13:15.619Z,11.10
2018-12-18T10:14:15.597Z,12.30
2018-12-18T10:15:15.559Z,11.90
2018-12-18T10:16:15.540Z,12.10
2018-12-18T10:17:15.529Z,9.40
2018-12-18T10:18:15.517Z,13.80
2018-12-18T10:19:15.477Z,9.50
2018-12-18T10:20:15.469Z,10.60
2018-12-18T10:21:15.439Z,9.50
2018-12-18T10:22:15.435Z,11.10
2018-12-18T10:23:15.399Z,9.10
2018-12-18T10:24:16.635Z,10.40
2018-12-18T10:25:15.372Z,10.80
2018-12-18T10:26:15.340Z,11.90
2018-12-18T10:27:15.308Z,11.30
2018-12-18T10:28:15.289Z,9.40
2018-12-18T10:29:15.269Z,8.70
2018-12-18T10:30:15.248Z,11.50
2018-12-18T10:31:15.293Z,10.00
2018-12-18T10:32:15.212Z,10.80
2018-12-18T10:33:15.191Z,10.10
2018-12-18T10:34:15.169Z,9.70
2018-12-18T10:35:15.164Z,12.10
2018-12-18T10:36:15.148Z,9.20
2018-12-18T10:37:15.127Z,10.50
2018-12-18T10:38:15.095Z,9.70
2018-12-18T10:39:15.067Z,9.90
2018-12-18T10:40:15.045Z,10.60
2018-12-18T10:41:15.028Z,10.90
2018-12-18T10:42:15.023Z,9.70
2018-12-18T10:43:14.989Z,8.20
2018-12-18T10:44:14.970Z,9.90
2018-12-18T10:45:14.946Z,10.70
2018-12-18T10:46:14.929Z,12.50
2018-12-18T10:47:14.913Z,10.60
2018-12-18T10:48:14.917Z,9.50
2018-12-18T10:49:14.876Z,7.60
2018-12-18T10:50:14.865Z,10.30
2018-12-18T10:51:14.856Z,9.60
2018-12-18T10:52:14.811Z,9.40
2018-12-18T10:53:14.803Z,9.20
2018-12-18T10:54:14.789Z,11.70
2018-12-18T10:55:14.767Z,8.30
2018-12-18T10:56:14.757Z,8.20
2018-12-18T10:57:14.732Z,8.70
2018-12-18T10:58:14.711Z,8.90
2018-12-18T10:59:14.689Z,8.30
2018-12-18T11:00:14.650Z,8.70
2018-12-18T11:01:14.632Z,8.00
2018-12-18T11:02:14.613Z,7.20
2018-12-18T11:03:14.610Z,8.80
2018-12-18T11:04:14.573Z,8.30
2018-12-18T11:05:14.568Z,8.10
2018-12-18T11:06:14.554Z,8.80
2018-12-18T11:07:14.517Z,8.80
2018-12-18T11:08:14.509Z,8.80
2018-12-18T11:09:14.479Z,9.00
2018-12-18T11:10:14.463Z,9.90
2018-12-18T11:11:14.499Z,8.70
2018-12-18T11:12:14.417Z,8.00
2018-12-18T11:13:14.397Z,8.60
2018-12-18T11:14:14.377Z,9.00
2018-12-18T11:15:14.362Z,9.00
2018-12-18T11:16:14.336Z,9.40
2018-12-18T11:17:14.350Z,10.10
2018-12-18T11:18:14.387Z,8.80
2018-12-18T11:19:14.275Z,7.20
2018-12-18T11:20:14.260Z,7.20
2018-12-18T11:21:14.241Z,8.60
2018-12-18T11:22:14.235Z,8.00
2018-12-18T11:23:14.215Z,7.90
2018-12-18T11:24:14.185Z,8.30
2018-12-18T11:25:14.164Z,6.80
2018-12-18T11:26:14.146Z,5.90
2018-12-18T11:27:14.140Z,7.40
2018-12-18T11:28:14.106Z,8.10
2018-12-18T11:29:14.084Z,7.40
2018-12-18T11:30:14.084Z,7.70
2018-12-18T11:31:14.053Z,10.10
2018-12-18T11:32:14.050Z,9.90
2018-12-18T11:33:14.009Z,6.30
2018-12-18T11:34:13.999Z,9.10
2018-12-18T11:35:13.976Z,9.20
2018-12-18T11:36:16.711Z,8.60
2018-12-18T11:37:13.937Z,8.70
2018-12-18T11:38:14.086Z,6.80
2018-12-18T11:39:13.890Z,7.40
2018-12-18T11:40:13.878Z,10.90
2018-12-18T11:41:13.853Z,7.20
2018-12-18T11:42:13.846Z,7.80
2018-12-18T11:43:13.815Z,7.30
2018-12-18T11:44:13.797Z,7.60
2018-12-18T11:45:13.774Z,7.20
2018-12-18T11:46:13.754Z,8.00
2018-12-18T11:47:13.760Z,6.60
2018-12-18T11:48:13.724Z,6.60
2018-12-18T11:49:13.705Z,6.60
2018-12-18T11:50:13.699Z,9.40
2018-12-18T11:51:13.692Z,7.00
2018-12-18T11:52:13.658Z,6.90
2018-12-18T11:53:13.627Z,7.30
2018-12-18T11:54:13.605Z,7.10
2018-12-18T11:55:13.584Z,7.40
2018-12-18T11:56:13.563Z,7.70
2018-12-18T11:57:13.562Z,7.70
2018-12-18T11:58:13.572Z,6.90
2018-12-18T11:59:13.509Z,10.60
2018-12-18T12:00:13.509Z,10.00
2018-12-18T12:01:13.467Z,8.40
2018-12-18T12:02:13.453Z,9.70
2018-12-18T12:03:13.437Z,7.70
2018-12-18T12:04:13.409Z,9.30
2018-12-18T12:05:13.412Z,8.70
2018-12-18T12:06:13.383Z,9.10
2018-12-18T12:07:13.361Z,7.80
2018-12-18T12:08:13.338Z,6.90
2018-12-18T12:09:13.323Z,7.20
2018-12-18T12:10:13.299Z,7.10
2018-12-18T12:11:13.298Z,7.40
2018-12-18T12:12:13.300Z,8.40
2018-12-18T12:13:13.242Z,7.70
2018-12-18T12:14:13.222Z,7.80
2018-12-18T12:15:13.204Z,7.60
2018-12-18T12:16:13.195Z,8.40
2018-12-18T12:17:13.169Z,8.90
2018-12-18T12:18:13.177Z,7.80
2018-12-18T12:19:13.133Z,8.00
2018-12-18T12:20:13.115Z,8.10
2018-12-18T12:21:13.093Z,6.40
2018-12-18T12:22:13.110Z,7.40
2018-12-18T12:23:13.051Z,10.30
2018-12-18T12:24:13.066Z,8.20
2018-12-18T12:25:13.016Z,7.20
2018-12-18T12:26:12.999Z,8.50
2018-12-18T12:27:13.005Z,6.30
2018-12-18T12:28:12.971Z,7.20
2018-12-18T12:29:12.988Z,7.80
2018-12-18T12:30:12.967Z,5.90
2018-12-18T12:31:12.951Z,8.30
2018-12-18T12:32:12.951Z,6.90
2018-12-18T12:33:12.971Z,9.30
2018-12-18T12:34:12.923Z,8.20
2018-12-18T12:35:12.915Z,6.70
2018-12-18T12:36:13.000Z,8.30
2018-12-18T12:37:12.972Z,7.00
2018-12-18T12:38:12.850Z,7.10
2018-12-18T12:39:12.833Z,8.60
2018-12-18T12:40:12.800Z,10.20
2018-12-18T12:41:12.720Z,6.80
2018-12-18T12:42:12.702Z,7.10
2018-12-18T12:43:12.693Z,9.10
2018-12-18T12:44:12.690Z,6.90
2018-12-18T12:45:12.645Z,5.70
2018-12-18T12:46:12.626Z,9.00
2018-12-18T12:47:12.609Z,8.90
2018-12-18T12:48:12.599Z,7.50
2018-12-18T12:49:12.573Z,7.40
2018-12-18T12:50:12.576Z,7.40
2018-12-18T12:51:12.534Z,10.50
2018-12-18T12:52:12.514Z,10.10
2018-12-18T12:53:12.511Z,7.70
2018-12-18T12:54:12.481Z,8.30
2018-12-18T12:55:12.482Z,8.40
2018-12-18T12:56:12.468Z,7.30
2018-12-18T12:57:12.421Z,6.80
2018-12-18T12:58:12.402Z,8.40
2018-12-18T12:59:12.396Z,7.10